createdAt,value
2022-08-18T00:01:11.238Z,85.30
2022-08-18T00:03:55.810Z,85.50
2022-08-18T00:06:28.952Z,85.60
2022-08-18T00:09:00.234Z,85.60
2022-08-18T00:11:28.794Z,85.80
2022-08-18T00:14:13.828Z,85.80
2022-08-18T00:16:49.720Z,85.90
2022-08-18T00:19:16.600Z,85.90
2022-08-18T00:21:43.473Z,86.00
2022-08-18T00:24:10.455Z,86.10
2022-08-18T00:26:37.299Z,86.20
2022-08-18T00:29:04.472Z,86.30
2022-08-18T00:31:32.125Z,86.40
2022-08-18T00:33:59.457Z,86.40
2022-08-18T00:36:27.096Z,86.30
2022-08-18T00:38:54.499Z,86.40
2022-08-18T00:41:21.716Z,86.40
2022-08-18T00:43:51.318Z,86.40
2022-08-18T00:46:22.852Z,86.50
2022-08-18T00:48:50.152Z,86.50
2022-08-18T00:51:27.656Z,86.30
2022-08-18T00:54:15.303Z,86.40
2022-08-18T00:56:51.500Z,86.40
2022-08-18T00:59:47.869Z,86.40
2022-08-18T01:02:26.549Z,86.40
2022-08-18T01:05:21.667Z,86.40
2022-08-18T01:07:49.946Z,86.40
2022-08-18T01:10:19.975Z,86.50
2022-08-18T01:12:49.913Z,86.40
2022-08-18T01:15:28.136Z,86.50
2022-08-18T01:18:17.501Z,86.50
2022-08-18T01:21:29.043Z,86.60
2022-08-18T01:23:57.482Z,86.50
2022-08-18T01:26:26.818Z,86.50
2022-08-18T01:28:54.156Z,86.40
2022-08-18T01:31:56.229Z,86.50
2022-08-18T01:34:25.814Z,86.50
2022-08-18T01:36:54.134Z,86.50
2022-08-18T01:41:22.510Z,86.10
2022-08-18T01:42:09.409Z,86.10
2022-08-18T01:44:36.712Z,85.70
2022-08-18T01:47:04.158Z,85.60
2022-08-18T01:49:31.133Z,85.40
2022-08-18T01:51:57.858Z,85.30
2022-08-18T01:54:25.848Z,85.30
2022-08-18T01:56:53.452Z,85.20
2022-08-18T01:59:20.266Z,84.90
2022-08-18T02:01:48.692Z,84.70
2022-08-18T02:04:35.143Z,84.60
2022-08-18T02:07:06.585Z,84.40
2022-08-18T02:09:34.233Z,84.10
2022-08-18T02:12:01.686Z,84.00
2022-08-18T02:14:31.229Z,83.90
2022-08-18T02:17:02.537Z,84.40
2022-08-18T02:19:38.918Z,83.90
2022-08-18T02:22:08.058Z,83.90
2022-08-18T02:24:35.018Z,84.00
2022-08-18T02:27:02.147Z,84.10
2022-08-18T02:29:29.490Z,84.50
2022-08-18T02:31:56.380Z,84.00
2022-08-18T02:34:23.688Z,84.00
2022-08-18T02:36:50.454Z,84.00
2022-08-18T02:39:17.335Z,84.00
2022-08-18T02:41:44.497Z,84.00
2022-08-18T02:44:12.066Z,84.10
2022-08-18T02:46:39.162Z,84.10
2022-08-18T02:49:08.110Z,84.30
2022-08-18T02:51:34.963Z,84.40
2022-08-18T02:54:02.004Z,84.40
2022-08-18T02:56:41.598Z,84.40
2022-08-18T02:59:27.683Z,84.50
2022-08-18T03:01:56.249Z,84.60
2022-08-18T03:04:29.399Z,84.60
2022-08-18T03:07:00.255Z,84.70
2022-08-18T03:09:27.865Z,84.70
2022-08-18T03:11:54.685Z,84.80
2022-08-18T03:14:22.175Z,85.00
2022-08-18T03:16:53.822Z,85.00
2022-08-18T03:19:30.811Z,85.20
2022-08-18T03:22:02.790Z,85.30
2022-08-18T03:24:32.525Z,85.40
2022-08-18T03:27:01.746Z,85.60
2022-08-18T03:29:32.433Z,85.70
2022-08-18T03:32:04.737Z,85.70
2022-08-18T03:34:32.485Z,85.90
2022-08-18T03:36:59.858Z,85.90
2022-08-18T03:39:28.085Z,86.10
2022-08-18T03:42:00.158Z,86.20
2022-08-18T03:44:30.831Z,86.30
2022-08-18T03:46:57.964Z,86.40
2022-08-18T03:49:26.862Z,86.50
2022-08-18T03:51:53.922Z,86.50
2022-08-18T03:54:20.695Z,86.50
2022-08-18T03:56:48.216Z,86.60
2022-08-18T03:59:21.310Z,86.70
2022-08-18T04:01:50.280Z,86.90
2022-08-18T04:04:24.960Z,87.00
2022-08-18T04:06:58.756Z,87.10
2022-08-18T04:09:28.444Z,87.20
2022-08-18T04:11:56.375Z,87.40
2022-08-18T04:14:25.263Z,87.40
2022-08-18T04:16:52.524Z,87.60
2022-08-18T04:19:26.661Z,87.70
2022-08-18T04:21:56.227Z,87.70
2022-08-18T04:24:23.550Z,87.80
2022-08-18T04:26:50.464Z,87.80
2022-08-18T04:29:19.695Z,87.70
2022-08-18T04:31:47.267Z,87.90
2022-08-18T04:34:15.119Z,87.90
2022-08-18T04:36:43.019Z,88.00
2022-08-18T04:39:12.636Z,88.20
2022-08-18T04:41:43.496Z,88.30
2022-08-18T04:44:12.390Z,88.20
2022-08-18T04:46:47.604Z,88.30
2022-08-18T04:49:15.460Z,88.40
2022-08-18T04:52:30.910Z,88.40
2022-08-18T04:54:55.201Z,88.50
2022-08-18T04:57:23.000Z,88.60
2022-08-18T04:59:52.442Z,88.70
2022-08-18T05:02:21.746Z,88.70
2022-08-18T05:04:49.242Z,88.80
2022-08-18T05:07:19.679Z,88.80
2022-08-18T05:09:47.144Z,88.80
2022-08-18T05:12:15.951Z,88.80
2022-08-18T05:14:45.413Z,88.80
2022-08-18T05:17:14.541Z,88.90
2022-08-18T05:19:44.467Z,88.80
2022-08-18T05:22:14.496Z,88.90
2022-08-18T05:24:42.287Z,89.00
2022-08-18T05:27:09.152Z,89.10
2022-08-18T05:29:45.829Z,89.10
2022-08-18T05:32:40.923Z,89.20
2022-08-18T05:35:17.220Z,89.30
2022-08-18T05:38:08.605Z,89.20
2022-08-18T05:40:36.659Z,89.60
2022-08-18T05:43:05.035Z,89.00
2022-08-18T05:45:34.767Z,89.00
2022-08-18T05:48:01.926Z,89.10
2022-08-18T05:50:32.322Z,89.10
2022-08-18T05:53:10.754Z,89.10
2022-08-18T05:56:12.756Z,89.10
2022-08-18T05:58:44.463Z,89.00
2022-08-18T06:01:20.569Z,88.90
2022-08-18T06:03:54.064Z,89.00
2022-08-18T06:06:27.946Z,89.00
2022-08-18T06:09:14.320Z,89.00
2022-08-18T06:11:41.236Z,89.30
2022-08-18T06:14:08.096Z,88.90
2022-08-18T06:16:57.017Z,88.80
2022-08-18T06:19:56.098Z,88.70
2022-08-18T06:22:56.562Z,88.70
2022-08-18T06:25:27.015Z,88.60
2022-08-18T06:28:15.716Z,88.70
2022-08-18T06:30:42.543Z,88.30
2022-08-18T06:33:34.257Z,88.70
2022-08-18T06:36:19.403Z,88.80
2022-08-18T06:39:26.385Z,88.30
2022-08-18T06:41:53.853Z,88.10
2022-08-18T06:44:49.368Z,88.10
2022-08-18T06:47:41.019Z,88.20
2022-08-18T06:50:18.470Z,88.10
2022-08-18T06:52:57.880Z,88.00
2022-08-18T06:55:37.855Z,87.80
2022-08-18T06:58:27.105Z,87.80
2022-08-18T07:00:56.567Z,87.90
2022-08-18T07:03:37.171Z,87.80
2022-08-18T07:06:26.454Z,87.50
2022-08-18T07:08:55.849Z,87.70
2022-08-18T07:11:34.153Z,88.00
2022-08-18T07:14:24.413Z,88.00
2022-08-18T07:17:05.990Z,87.80
2022-08-18T07:19:32.989Z,87.90
2022-08-18T07:22:39.211Z,87.80
2022-08-18T07:25:06.887Z,87.90
2022-08-18T07:27:44.933Z,88.00
2022-08-18T07:30:25.449Z,88.30
2022-08-18T07:33:21.921Z,88.00
2022-08-18T07:36:03.328Z,88.00
2022-08-18T07:38:56.983Z,87.90
2022-08-18T07:41:43.977Z,87.70
2022-08-18T07:44:35.730Z,87.50
2022-08-18T07:47:10.512Z,87.70
2022-08-18T07:49:46.065Z,87.70
2022-08-18T07:52:59.558Z,87.60
2022-08-18T07:55:35.578Z,87.70
2022-08-18T07:58:31.946Z,87.60
2022-08-18T08:01:11.151Z,87.50
2022-08-18T08:04:07.212Z,87.50
2022-08-18T08:06:41.085Z,87.60
2022-08-18T08:09:31.860Z,87.50
2022-08-18T08:12:22.340Z,87.40
2022-08-18T08:14:53.980Z,87.50
2022-08-18T08:17:32.774Z,87.60
2022-08-18T08:20:33.258Z,87.50
2022-08-18T08:23:09.346Z,87.50
2022-08-18T08:25:54.789Z,87.50
2022-08-18T08:28:41.754Z,87.70
2022-08-18T08:31:36.350Z,87.70
2022-08-18T08:34:32.860Z,88.10
2022-08-18T08:37:12.576Z,87.70
2022-08-18T08:39:42.349Z,88.00
2022-08-18T08:42:35.360Z,88.10
2022-08-18T08:45:13.473Z,88.40
2022-08-18T08:48:08.088Z,88.00
2022-08-18T08:50:43.130Z,88.40
2022-08-18T08:53:34.196Z,88.40
2022-08-18T08:56:12.295Z,87.80
2022-08-18T08:58:59.775Z,87.60
2022-08-18T09:01:29.634Z,87.80
2022-08-18T09:03:59.843Z,87.90
2022-08-18T09:06:32.712Z,87.80
2022-08-18T09:09:11.694Z,87.60
2022-08-18T09:11:56.935Z,87.40
2022-08-18T09:14:41.786Z,87.10
2022-08-18T09:18:02.313Z,87.00
2022-08-18T09:20:53.814Z,87.30
2022-08-18T09:23:30.499Z,87.40
2022-08-18T09:26:01.081Z,87.40
2022-08-18T09:28:30.907Z,87.70
2022-08-18T09:34:32.583Z,87.90
2022-08-18T09:37:12.511Z,88.10
2022-08-18T09:40:29.599Z,88.40
2022-08-18T09:43:22.417Z,88.60
2022-08-18T09:45:55.507Z,88.50
2022-08-18T09:48:31.781Z,88.40
2022-08-18T09:51:32.087Z,88.70
2022-08-18T09:54:14.933Z,88.30
2022-08-18T09:56:53.964Z,88.30
2022-08-18T09:59:34.524Z,88.10
2022-08-18T10:02:18.918Z,88.10
2022-08-18T10:04:50.554Z,88.30
2022-08-18T10:13:51.039Z,87.60
2022-08-18T10:17:04.967Z,87.10
2022-08-18T10:22:35.433Z,86.90
2022-08-18T10:25:19.780Z,86.90
2022-08-18T10:27:55.130Z,86.80
2022-08-18T10:30:56.733Z,86.50
2022-08-18T10:37:06.468Z,86.20
2022-08-18T10:39:39.682Z,86.10
2022-08-18T10:42:34.377Z,86.00
2022-08-18T10:45:28.656Z,86.10
2022-08-18T10:48:19.085Z,86.00
2022-08-18T10:51:04.813Z,85.70
2022-08-18T10:53:44.079Z,85.40
2022-08-18T10:56:14.379Z,85.40
2022-08-18T10:59:20.231Z,85.20
2022-08-18T11:02:29.507Z,85.00
2022-08-18T11:04:59.098Z,84.60
2022-08-18T11:07:30.850Z,84.40
2022-08-18T11:10:29.253Z,83.90
2022-08-18T11:13:07.609Z,83.30
2022-08-18T11:15:58.077Z,83.20
2022-08-18T11:18:32.679Z,82.60
2022-08-18T11:21:23.847Z,82.40
2022-08-18T11:24:13.360Z,82.10
2022-08-18T11:27:20.928Z,81.80
2022-08-18T11:29:51.529Z,81.30
2022-08-18T11:32:27.537Z,80.90
2022-08-18T11:35:27.506Z,79.30
2022-08-18T11:37:58.354Z,78.60
2022-08-18T11:41:09.729Z,78.30
2022-08-18T11:43:41.374Z,78.20
2022-08-18T11:46:30.180Z,77.80
2022-08-18T11:49:13.991Z,78.00
2022-08-18T11:52:13.731Z,77.40
2022-08-18T11:57:50.071Z,76.70
2022-08-18T12:00:44.304Z,75.10
2022-08-18T12:03:41.745Z,75.50
2022-08-18T12:06:27.964Z,75.10
2022-08-18T12:12:18.573Z,74.00
2022-08-18T12:15:22.702Z,73.20
2022-08-18T12:17:53.009Z,72.70
2022-08-18T12:20:21.288Z,72.20
2022-08-18T12:22:49.633Z,72.20
2022-08-18T12:25:25.267Z,72.50
2022-08-18T12:27:55.914Z,72.30
2022-08-18T12:30:23.461Z,73.40
2022-08-18T12:33:05.573Z,73.40
2022-08-18T12:35:37.488Z,74.00
2022-08-18T12:40:51.224Z,73.50
2022-08-18T12:43:18.642Z,73.50
2022-08-18T12:45:47.676Z,73.90
2022-08-18T12:48:14.676Z,73.30
2022-08-18T12:50:54.134Z,73.60
2022-08-18T12:53:30.102Z,73.20
2022-08-18T12:56:14.688Z,73.00
2022-08-18T12:58:41.509Z,73.00
2022-08-18T13:01:08.352Z,72.40
2022-08-18T13:03:36.982Z,71.80
2022-08-18T13:06:04.756Z,71.40
2022-08-18T13:08:38.008Z,71.50
2022-08-18T13:11:21.623Z,70.90
2022-08-18T13:13:53.098Z,70.70
2022-08-18T13:16:30.855Z,71.30
2022-08-18T13:19:07.911Z,71.30
2022-08-18T13:21:41.029Z,70.80
2022-08-18T13:24:09.355Z,71.00
2022-08-18T13:26:41.916Z,71.30
2022-08-18T13:29:10.134Z,70.90
2022-08-18T13:31:38.174Z,70.80
2022-08-18T13:34:11.677Z,70.80
2022-08-18T13:36:46.225Z,71.30
2022-08-18T13:39:21.341Z,71.30
2022-08-18T13:41:51.871Z,70.90
2022-08-18T13:44:21.124Z,70.10
2022-08-18T13:46:48.726Z,70.00
2022-08-18T13:49:18.366Z,70.20
2022-08-18T13:51:58.034Z,69.80
2022-08-18T13:54:33.959Z,67.90
2022-08-18T13:57:03.113Z,68.40
2022-08-18T13:59:32.963Z,68.50
2022-08-18T14:02:02.954Z,67.90
2022-08-18T14:04:29.788Z,66.30
2022-08-18T14:06:58.807Z,66.10
2022-08-18T14:09:37.721Z,66.10
2022-08-18T14:12:15.231Z,66.10
2022-08-18T14:14:49.354Z,66.20
2022-08-18T14:17:19.687Z,65.50
2022-08-18T14:20:10.610Z,65.40
2022-08-18T14:23:00.487Z,65.10
2022-08-18T14:25:46.386Z,64.60
2022-08-18T14:28:18.311Z,64.60
2022-08-18T14:30:54.237Z,64.60
2022-08-18T14:33:49.675Z,64.30
2022-08-18T14:36:11.446Z,66.30
2022-08-18T14:38:38.932Z,67.40
2022-08-18T14:41:08.647Z,67.90
2022-08-18T14:44:04.575Z,67.60
2022-08-18T14:46:23.758Z,67.70
2022-08-18T14:48:57.733Z,68.30
2022-08-18T14:51:27.129Z,68.60
2022-08-18T14:53:55.706Z,69.30
2022-08-18T14:56:24.477Z,69.80
2022-08-18T14:58:55.834Z,70.00
2022-08-18T15:01:23.256Z,69.60
2022-08-18T15:03:50.211Z,69.50
2022-08-18T15:06:23.122Z,69.70
2022-08-18T15:08:55.017Z,68.70
2022-08-18T15:11:24.734Z,68.40
2022-08-18T15:13:51.659Z,68.70
2022-08-18T15:16:27.155Z,69.30
2022-08-18T15:18:59.371Z,69.50
2022-08-18T15:21:46.371Z,69.40
2022-08-18T15:24:33.883Z,69.50
2022-08-18T15:27:05.930Z,69.20
2022-08-18T15:29:36.967Z,69.40
2022-08-18T15:32:10.453Z,69.70
2022-08-18T15:34:46.064Z,69.70
2022-08-18T15:37:16.055Z,69.80
2022-08-18T15:39:47.052Z,69.90
2022-08-18T15:42:23.712Z,70.10
2022-08-18T15:44:51.686Z,70.70
2022-08-18T15:47:20.812Z,70.00
2022-08-18T15:49:48.274Z,70.10
2022-08-18T15:52:17.656Z,70.00
2022-08-18T15:54:50.942Z,70.00
2022-08-18T15:57:39.542Z,69.60
2022-08-18T16:00:05.844Z,69.70
2022-08-18T16:02:32.709Z,70.00
2022-08-18T16:05:10.135Z,70.20
2022-08-18T16:07:53.531Z,70.40
2022-08-18T16:10:22.548Z,70.40
2022-08-18T16:12:50.102Z,70.20
2022-08-18T16:15:21.530Z,70.30
2022-08-18T16:17:50.612Z,70.40
2022-08-18T16:20:18.846Z,70.30
2022-08-18T16:22:47.022Z,70.30
2022-08-18T16:25:15.407Z,70.30
2022-08-18T16:27:43.006Z,70.00
2022-08-18T16:30:13.163Z,69.90
2022-08-18T16:32:40.233Z,69.80
2022-08-18T16:35:07.389Z,69.90
2022-08-18T16:37:34.529Z,69.90
2022-08-18T16:40:01.483Z,70.80
2022-08-18T16:42:32.973Z,72.40
2022-08-18T16:45:01.090Z,72.70
2022-08-18T16:47:28.423Z,72.80
2022-08-18T16:49:58.516Z,73.30
2022-08-18T16:52:27.281Z,73.60
2022-08-18T16:54:57.602Z,74.40
2022-08-18T16:57:55.056Z,75.10
2022-08-18T17:00:41.489Z,75.20
2022-08-18T17:03:27.185Z,75.70
2022-08-18T17:06:05.930Z,76.40
2022-08-18T17:08:34.418Z,79.10
2022-08-18T17:11:12.677Z,80.20
2022-08-18T17:13:40.999Z,81.10
2022-08-18T17:16:09.257Z,82.70
2022-08-18T17:18:36.412Z,83.40
2022-08-18T17:21:05.272Z,84.70
2022-08-18T17:23:32.964Z,85.50
2022-08-18T17:26:02.636Z,85.90
2022-08-18T17:28:54.514Z,86.40
2022-08-18T17:31:24.776Z,86.90
2022-08-18T17:33:57.210Z,87.40
2022-08-18T17:36:41.128Z,87.80
2022-08-18T17:39:12.361Z,88.10
2022-08-18T17:42:02.199Z,88.50
2022-08-18T17:44:31.675Z,88.90
2022-08-18T17:47:02.457Z,89.10
2022-08-18T17:50:04.282Z,89.40
2022-08-18T17:52:45.794Z,89.70
2022-08-18T17:55:39.124Z,89.30
2022-08-18T17:58:21.138Z,89.40
2022-08-18T18:00:47.984Z,89.80
2022-08-18T18:03:14.844Z,89.80
2022-08-18T18:05:49.778Z,89.80
2022-08-18T18:08:17.087Z,89.90
2022-08-18T18:11:04.341Z,89.90
2022-08-18T18:13:33.522Z,89.80
2022-08-18T18:16:18.442Z,89.60
2022-08-18T18:18:46.011Z,89.70
2022-08-18T18:21:15.939Z,89.80
2022-08-18T18:24:06.267Z,89.80
2022-08-18T18:26:48.500Z,90.00
2022-08-18T18:29:38.332Z,90.10
2022-08-18T18:32:22.244Z,90.30
2022-08-18T18:35:13.915Z,90.40
2022-08-18T18:37:59.793Z,90.70
2022-08-18T18:40:53.305Z,90.90
2022-08-18T18:43:23.116Z,91.10
2022-08-18T18:46:23.207Z,91.40
2022-08-18T18:49:05.238Z,91.70
2022-08-18T18:52:11.434Z,92.00
2022-08-18T18:55:17.012Z,92.10
2022-08-18T18:58:27.434Z,92.20
2022-08-18T19:01:03.731Z,92.20
2022-08-18T19:03:33.828Z,92.10
2022-08-18T19:06:28.497Z,92.20
2022-08-18T19:09:24.441Z,92.30
2022-08-18T19:11:52.886Z,92.40
2022-08-18T19:14:28.580Z,92.50
2022-08-18T19:17:04.627Z,92.60
2022-08-18T19:19:50.985Z,92.80
2022-08-18T19:22:30.000Z,92.90
2022-08-18T19:25:14.876Z,93.00
2022-08-18T19:27:51.693Z,93.00
2022-08-18T19:30:21.554Z,93.10
2022-08-18T19:32:56.268Z,93.10
2022-08-18T19:35:39.113Z,93.10
2022-08-18T19:38:19.213Z,93.20
2022-08-18T19:41:00.286Z,93.20
2022-08-18T19:43:49.733Z,93.30
2022-08-18T19:46:38.109Z,93.30
2022-08-18T19:49:33.011Z,93.20
2022-08-18T19:52:08.087Z,93.20
2022-08-18T19:54:57.206Z,93.30
2022-08-18T19:57:47.632Z,93.40
2022-08-18T20:00:22.724Z,93.30
2022-08-18T20:03:07.618Z,93.40
2022-08-18T20:05:40.216Z,93.40
2022-08-18T20:08:27.771Z,93.50
2022-08-18T20:11:41.822Z,93.60
2022-08-18T20:14:12.627Z,93.80
2022-08-18T20:16:44.303Z,94.10
2022-08-18T20:19:45.650Z,94.30
2022-08-18T20:22:21.889Z,94.50
2022-08-18T20:25:05.420Z,94.60
2022-08-18T20:27:50.054Z,94.80
2022-08-18T20:30:19.721Z,94.90
2022-08-18T20:33:10.942Z,95.10
2022-08-18T20:35:41.107Z,95.30
2022-08-18T20:38:19.636Z,95.40
2022-08-18T20:40:52.315Z,95.50
2022-08-18T20:43:28.967Z,95.60
2022-08-18T20:46:21.698Z,95.70
2022-08-18T20:49:06.182Z,95.90
2022-08-18T20:51:51.986Z,96.00
2022-08-18T20:54:37.947Z,96.20
2022-08-18T20:57:12.440Z,96.50
2022-08-18T21:00:03.912Z,97.30
2022-08-18T21:02:41.100Z,98.10
2022-08-18T21:05:10.571Z,98.80
2022-08-18T21:08:02.771Z,99.60
2022-08-18T21:10:31.430Z,99.90
2022-08-18T21:13:01.978Z,99.90
2022-08-18T21:15:35.617Z,99.90
2022-08-18T21:18:04.644Z,99.90
2022-08-18T21:20:33.051Z,99.90
2022-08-18T21:23:09.918Z,99.90
2022-08-18T21:25:40.796Z,99.90
2022-08-18T21:28:07.683Z,99.90
2022-08-18T21:30:34.855Z,99.90
2022-08-18T21:33:16.843Z,99.90
2022-08-18T21:35:43.674Z,99.90
2022-08-18T21:38:12.487Z,99.90
2022-08-18T21:40:46.394Z,99.90
2022-08-18T21:43:35.331Z,99.90
2022-08-18T21:46:03.174Z,99.90
2022-08-18T21:48:31.538Z,99.90
2022-08-18T21:51:01.187Z,99.90
2022-08-18T21:53:33.755Z,99.90
2022-08-18T21:56:01.460Z,99.90
2022-08-18T21:58:33.800Z,99.90
2022-08-18T22:01:10.962Z,99.90
2022-08-18T22:03:52.336Z,99.90
2022-08-18T22:06:40.769Z,99.90
2022-08-18T22:09:29.122Z,99.90
2022-08-18T22:12:48.010Z,99.90
2022-08-18T22:15:26.283Z,99.90
2022-08-18T22:18:00.827Z,99.90
2022-08-18T22:20:47.871Z,99.90
2022-08-18T22:23:33.305Z,99.90
2022-08-18T22:26:30.208Z,99.90
2022-08-18T22:29:06.392Z,99.90
2022-08-18T22:31:46.793Z,99.90
2022-08-18T22:34:28.264Z,99.90
2022-08-18T22:37:01.487Z,99.90
2022-08-18T22:39:43.637Z,99.90
2022-08-18T22:42:11.341Z,99.90
2022-08-18T22:44:38.495Z,99.90
2022-08-18T22:47:05.760Z,99.90
2022-08-18T22:49:37.083Z,99.90
2022-08-18T22:52:07.361Z,99.90
2022-08-18T22:54:35.251Z,99.90
2022-08-18T22:57:02.896Z,99.90
2022-08-18T22:59:33.314Z,99.90
2022-08-18T23:02:01.329Z,99.90
2022-08-18T23:04:28.455Z,99.90
2022-08-18T23:06:56.160Z,99.90
2022-08-18T23:09:26.507Z,99.90
2022-08-18T23:11:55.306Z,99.90
2022-08-18T23:14:22.621Z,99.90
2022-08-18T23:16:50.043Z,99.90
2022-08-18T23:19:19.500Z,99.90
2022-08-18T23:21:48.395Z,99.90
2022-08-18T23:24:17.740Z,99.90
2022-08-18T23:26:44.795Z,99.90
2022-08-18T23:29:14.320Z,99.90
2022-08-18T23:31:43.690Z,99.90
2022-08-18T23:34:13.199Z,99.90
2022-08-18T23:36:45.346Z,99.90
2022-08-18T23:39:13.790Z,99.90
2022-08-18T23:41:40.642Z,99.90
2022-08-18T23:44:19.974Z,99.90
2022-08-18T23:46:50.738Z,99.90
2022-08-18T23:49:17.646Z,99.90
2022-08-18T23:51:49.101Z,99.90
2022-08-18T23:54:21.570Z,99.90
2022-08-18T23:56:48.878Z,99.90
2022-08-18T23:59:20.720Z,99.90
